createdAt,value
2022-10-19T00:01:45.599Z,6.10
2022-10-19T00:04:13.482Z,7.00
2022-10-19T00:06:42.737Z,7.10
2022-10-19T00:09:12.266Z,8.00
2022-10-19T00:11:41.546Z,7.93
2022-10-19T00:14:27.822Z,6.70
2022-10-19T00:16:58.231Z,8.13
2022-10-19T00:19:26.941Z,7.23
2022-10-19T00:21:54.988Z,7.80
2022-10-19T00:24:22.847Z,7.03
2022-10-19T00:26:50.822Z,7.60
2022-10-19T00:29:18.698Z,7.20
2022-10-19T00:31:48.161Z,7.50
2022-10-19T00:34:16.024Z,6.83
2022-10-19T00:36:43.944Z,7.27
2022-10-19T00:39:14.326Z,7.43
2022-10-19T00:41:42.429Z,6.70
2022-10-19T00:44:43.268Z,7.20
2022-10-19T00:47:12.523Z,7.97
2022-10-19T00:49:41.733Z,7.90
2022-10-19T00:52:11.261Z,7.97
2022-10-19T00:54:39.967Z,7.60
2022-10-19T00:57:08.502Z,7.97
2022-10-19T00:59:36.511Z,8.00
2022-10-19T01:02:05.452Z,8.20
2022-10-19T01:04:35.836Z,7.47
2022-10-19T01:07:03.854Z,8.80
2022-10-19T01:09:31.789Z,9.13
2022-10-19T01:12:01.652Z,9.60
2022-10-19T01:14:33.104Z,9.87
2022-10-19T01:17:03.734Z,10.43
2022-10-19T01:19:46.204Z,10.50
2022-10-19T01:22:18.857Z,10.27
2022-10-19T01:27:37.646Z,9.97
2022-10-19T01:30:13.192Z,10.43
2022-10-19T01:32:47.653Z,10.03
2022-10-19T01:35:18.971Z,10.30
2022-10-19T01:37:49.635Z,10.47
2022-10-19T01:40:21.486Z,11.13
2022-10-19T01:42:51.555Z,10.90
2022-10-19T01:45:22.330Z,11.63
2022-10-19T01:47:54.300Z,10.60
2022-10-19T01:50:25.821Z,11.20
2022-10-19T01:52:53.677Z,12.60
2022-10-19T01:55:21.586Z,12.00
2022-10-19T01:57:52.276Z,11.47
2022-10-19T02:00:21.516Z,11.47
2022-10-19T02:02:50.859Z,11.40
2022-10-19T02:05:19.642Z,11.63
2022-10-19T02:07:49.698Z,11.23
2022-10-19T02:10:17.636Z,11.27
2022-10-19T02:12:45.570Z,11.43
2022-10-19T02:15:15.399Z,12.33
2022-10-19T02:17:47.051Z,11.13
2022-10-19T02:20:15.195Z,12.23
2022-10-19T02:22:43.164Z,11.73
2022-10-19T02:25:11.173Z,11.90
2022-10-19T02:27:39.733Z,11.53
2022-10-19T02:30:09.295Z,11.63
2022-10-19T02:32:37.186Z,11.20
2022-10-19T02:35:07.161Z,10.93
2022-10-19T02:40:08.584Z,10.93
2022-10-19T02:42:38.458Z,11.87
2022-10-19T02:45:08.948Z,11.17
2022-10-19T02:47:37.389Z,11.67
2022-10-19T02:50:08.028Z,12.10
2022-10-19T02:52:37.918Z,11.93
2022-10-19T02:55:06.566Z,12.60
2022-10-19T02:57:34.595Z,12.23
2022-10-19T03:00:03.690Z,12.60
2022-10-19T03:02:31.572Z,12.63
2022-10-19T03:04:59.472Z,12.07
2022-10-19T03:07:28.734Z,12.50
2022-10-19T03:09:56.582Z,11.93
2022-10-19T03:12:24.447Z,12.23
2022-10-19T03:14:52.333Z,12.17
2022-10-19T03:17:20.274Z,13.17
2022-10-19T03:19:48.180Z,12.10
2022-10-19T03:22:16.125Z,11.97
2022-10-19T03:24:45.400Z,12.57
2022-10-19T03:27:13.254Z,11.63
2022-10-19T03:29:41.151Z,12.27
2022-10-19T03:32:09.018Z,12.43
2022-10-19T03:34:36.837Z,12.90
2022-10-19T03:37:04.715Z,12.33
2022-10-19T03:39:32.613Z,12.60
2022-10-19T03:42:01.941Z,13.23
2022-10-19T03:44:29.800Z,12.83
2022-10-19T03:46:57.695Z,13.30
2022-10-19T03:49:25.573Z,12.73
2022-10-19T03:51:53.489Z,12.37
2022-10-19T03:54:23.711Z,13.13
2022-10-19T03:56:55.007Z,13.13
2022-10-19T03:59:24.435Z,13.70
2022-10-19T04:01:52.280Z,13.40
2022-10-19T04:04:20.505Z,13.30
2022-10-19T04:06:49.953Z,14.00
2022-10-19T04:09:18.628Z,14.43
2022-10-19T04:11:46.680Z,13.70
2022-10-19T04:14:22.782Z,14.17
2022-10-19T04:17:02.259Z,15.07
2022-10-19T04:19:30.273Z,14.37
2022-10-19T04:21:58.163Z,14.67
2022-10-19T04:24:26.011Z,13.77
2022-10-19T04:26:55.027Z,13.80
2022-10-19T04:29:26.357Z,12.37
2022-10-19T04:31:57.547Z,12.20
2022-10-19T04:34:26.818Z,11.80
2022-10-19T04:36:54.808Z,12.43
2022-10-19T04:39:22.733Z,12.40
2022-10-19T04:41:50.587Z,11.93
2022-10-19T04:44:18.525Z,11.33
2022-10-19T04:46:46.460Z,11.60
2022-10-19T04:49:16.521Z,12.30
2022-10-19T04:51:48.814Z,13.10
2022-10-19T04:54:16.699Z,12.23
2022-10-19T04:56:44.599Z,12.07
2022-10-19T04:59:12.474Z,12.60
2022-10-19T05:01:46.353Z,12.33
2022-10-19T05:04:15.305Z,11.90
2022-10-19T05:06:43.189Z,11.87
2022-10-19T05:09:12.599Z,10.97
2022-10-19T05:11:40.547Z,12.07
2022-10-19T05:14:08.754Z,12.40
2022-10-19T05:16:36.646Z,10.37
2022-10-19T05:19:04.533Z,12.20
2022-10-19T05:21:32.444Z,13.00
2022-10-19T05:24:00.367Z,12.37
2022-10-19T05:26:30.329Z,11.73
2022-10-19T05:29:01.463Z,12.23
2022-10-19T05:31:30.407Z,11.97
2022-10-19T05:33:58.531Z,11.57
2022-10-19T05:36:27.208Z,12.27
2022-10-19T05:38:56.176Z,12.43
2022-10-19T05:41:24.313Z,12.20
2022-10-19T05:43:55.267Z,11.67
2022-10-19T05:46:23.192Z,11.43
2022-10-19T05:48:51.127Z,12.73
2022-10-19T05:51:21.051Z,10.80
2022-10-19T05:53:48.976Z,11.37
2022-10-19T05:56:17.839Z,11.40
2022-10-19T05:58:45.716Z,10.37
2022-10-19T06:01:15.118Z,8.87
2022-10-19T06:03:43.638Z,9.23
2022-10-19T06:06:11.640Z,8.30
2022-10-19T06:08:39.788Z,8.90
2022-10-19T06:11:08.297Z,9.27
2022-10-19T06:13:36.385Z,9.17
2022-10-19T06:16:04.357Z,8.93
2022-10-19T06:18:33.611Z,8.87
2022-10-19T06:21:03.028Z,8.23
2022-10-19T06:23:31.105Z,8.30
2022-10-19T06:25:59.009Z,8.07
2022-10-19T06:28:26.884Z,8.47
2022-10-19T06:30:54.901Z,9.13
2022-10-19T06:33:22.817Z,8.93
2022-10-19T06:35:52.028Z,9.43
2022-10-19T06:38:19.919Z,10.03
2022-10-19T06:40:49.070Z,10.47
2022-10-19T06:43:16.987Z,12.03
2022-10-19T06:45:44.913Z,10.50
2022-10-19T06:48:12.833Z,11.53
2022-10-19T06:50:40.767Z,10.57
2022-10-19T06:53:10.045Z,10.77
2022-10-19T06:55:38.003Z,12.33
2022-10-19T06:58:05.859Z,10.60
2022-10-19T07:00:33.827Z,11.27
2022-10-19T07:03:01.777Z,10.90
2022-10-19T07:05:29.705Z,11.63
2022-10-19T07:07:58.565Z,11.97
2022-10-19T07:10:28.010Z,10.40
2022-10-19T07:12:57.442Z,9.97
2022-10-19T07:15:25.460Z,10.80
2022-10-19T07:17:54.313Z,10.20
2022-10-19T07:20:22.241Z,10.13
2022-10-19T07:22:50.134Z,10.03
2022-10-19T07:25:18.216Z,10.27
2022-10-19T07:27:47.507Z,10.70
2022-10-19T07:30:15.471Z,9.00
2022-10-19T07:32:46.939Z,10.53
2022-10-19T07:35:15.328Z,11.20
2022-10-19T07:37:43.251Z,10.47
2022-10-19T07:40:12.942Z,10.73
2022-10-19T07:42:40.920Z,10.07
2022-10-19T07:45:11.145Z,9.10
2022-10-19T07:47:39.033Z,10.43
2022-10-19T07:50:07.241Z,10.27
2022-10-19T07:52:36.925Z,9.63
2022-10-19T07:55:05.679Z,10.07
2022-10-19T07:57:33.684Z,9.57
2022-10-19T08:00:02.084Z,9.27
2022-10-19T08:02:39.647Z,9.53
2022-10-19T08:05:19.451Z,9.67
2022-10-19T08:07:47.424Z,9.60
2022-10-19T08:10:15.372Z,9.30
2022-10-19T08:12:43.973Z,9.00
2022-10-19T08:15:11.902Z,9.30
2022-10-19T08:17:41.182Z,8.67
2022-10-19T08:20:09.552Z,8.80
2022-10-19T08:22:37.596Z,9.80
2022-10-19T08:25:06.160Z,9.30
2022-10-19T08:27:34.196Z,9.30
2022-10-19T08:30:02.123Z,9.53
2022-10-19T08:32:30.077Z,8.80
2022-10-19T08:34:59.401Z,9.77
2022-10-19T08:37:43.786Z,9.13
2022-10-19T08:40:17.799Z,9.37
2022-10-19T08:42:50.526Z,8.80
2022-10-19T08:45:32.690Z,9.33
2022-10-19T08:48:04.467Z,8.33
2022-10-19T08:50:36.498Z,9.20
2022-10-19T08:53:05.926Z,8.13
2022-10-19T08:55:39.433Z,8.43
2022-10-19T08:58:13.300Z,7.67
2022-10-19T09:00:43.124Z,8.77
2022-10-19T09:03:23.113Z,8.70
2022-10-19T09:06:09.189Z,8.03
2022-10-19T09:08:39.990Z,8.13
2022-10-19T09:11:07.954Z,9.47
2022-10-19T09:13:46.952Z,8.93
2022-10-19T09:16:25.914Z,8.93
2022-10-19T09:21:31.100Z,8.37
2022-10-19T09:24:07.225Z,8.70
2022-10-19T09:26:37.130Z,9.63
2022-10-19T09:29:07.615Z,10.37
2022-10-19T09:31:40.540Z,9.60
2022-10-19T09:34:13.293Z,9.40
2022-10-19T09:36:50.541Z,9.47
2022-10-19T09:39:18.964Z,10.67
2022-10-19T09:41:47.077Z,10.40
2022-10-19T09:44:14.937Z,9.60
2022-10-19T09:46:48.595Z,10.00
2022-10-19T09:49:16.564Z,9.50
2022-10-19T09:51:51.851Z,10.13
2022-10-19T09:54:27.623Z,9.40
2022-10-19T09:56:56.235Z,9.17
2022-10-19T09:59:26.012Z,9.27
2022-10-19T10:04:31.485Z,8.43
2022-10-19T10:07:00.735Z,9.17
2022-10-19T10:09:30.063Z,9.73
2022-10-19T10:11:58.810Z,8.70
2022-10-19T10:14:28.769Z,9.13
2022-10-19T10:16:56.878Z,8.30
2022-10-19T10:19:28.292Z,8.10
2022-10-19T10:21:57.779Z,9.20
2022-10-19T10:24:27.312Z,8.73
2022-10-19T10:26:55.826Z,7.87
2022-10-19T10:29:24.890Z,8.30
2022-10-19T10:31:53.968Z,7.67
2022-10-19T10:34:45.429Z,7.40
2022-10-19T10:37:17.043Z,7.20
2022-10-19T10:39:46.337Z,6.67
2022-10-19T10:42:16.361Z,6.90
2022-10-19T10:44:46.590Z,7.10
2022-10-19T10:47:15.462Z,7.20
2022-10-19T10:49:43.588Z,7.60
2022-10-19T10:52:12.121Z,6.20
2022-10-19T10:54:40.079Z,5.80
2022-10-19T10:57:13.919Z,5.83
2022-10-19T10:59:54.613Z,5.57
2022-10-19T11:02:36.026Z,5.17
2022-10-19T11:05:07.363Z,5.00
2022-10-19T11:07:35.893Z,5.53
2022-10-19T11:10:09.861Z,5.70
2022-10-19T11:12:40.745Z,5.50
2022-10-19T11:15:14.919Z,5.35
2022-10-19T11:17:47.668Z,5.28
2022-10-19T11:20:16.171Z,5.07
2022-10-19T11:22:46.028Z,5.00
2022-10-19T11:25:28.695Z,4.88
2022-10-19T11:28:05.828Z,5.15
2022-10-19T11:30:36.182Z,4.47
2022-10-19T11:33:08.060Z,5.10
2022-10-19T11:35:46.951Z,4.50
2022-10-19T11:38:27.433Z,4.75
2022-10-19T11:41:20.268Z,4.78
2022-10-19T11:43:57.374Z,4.30
2022-10-19T11:46:27.014Z,4.95
2022-10-19T11:49:04.570Z,4.22
2022-10-19T11:51:35.910Z,4.55
2022-10-19T11:54:14.700Z,4.90
2022-10-19T11:57:02.460Z,4.63
2022-10-19T11:59:38.885Z,4.13
2022-10-19T12:02:14.858Z,4.70
2022-10-19T12:04:53.141Z,4.60
2022-10-19T12:07:37.872Z,4.15
2022-10-19T12:10:13.576Z,4.38
2022-10-19T12:12:42.243Z,3.92
2022-10-19T12:15:24.835Z,3.80
2022-10-19T12:17:53.641Z,4.22
2022-10-19T12:20:28.648Z,4.30
2022-10-19T12:22:56.752Z,4.20
2022-10-19T12:25:24.662Z,4.10
2022-10-19T12:27:52.638Z,4.55
2022-10-19T12:30:22.974Z,4.10
2022-10-19T12:33:02.955Z,4.10
2022-10-19T12:35:49.048Z,4.78
2022-10-19T12:38:20.062Z,4.05
2022-10-19T12:40:50.930Z,4.28
2022-10-19T12:43:21.283Z,4.28
2022-10-19T12:45:52.487Z,4.00
2022-10-19T12:48:22.197Z,4.53
2022-10-19T12:51:15.195Z,4.93
2022-10-19T12:53:44.467Z,4.68
2022-10-19T12:56:17.455Z,4.82
2022-10-19T12:58:52.999Z,5.00
2022-10-19T13:01:24.553Z,4.50
2022-10-19T13:03:54.462Z,4.38
2022-10-19T13:06:32.064Z,4.45
2022-10-19T13:09:01.035Z,4.20
2022-10-19T13:11:29.087Z,4.20
2022-10-19T13:14:07.527Z,4.35
2022-10-19T13:17:00.796Z,4.13
2022-10-19T13:19:28.718Z,4.60
2022-10-19T13:22:19.001Z,4.10
2022-10-19T13:24:49.250Z,4.25
2022-10-19T13:27:39.070Z,4.13
2022-10-19T13:30:29.921Z,4.32
2022-10-19T13:32:59.163Z,4.13
2022-10-19T13:35:31.607Z,4.05
2022-10-19T13:38:32.802Z,4.30
2022-10-19T13:41:08.417Z,4.43
2022-10-19T13:43:38.638Z,4.35
2022-10-19T13:46:11.537Z,3.97
2022-10-19T13:49:11.182Z,4.60
2022-10-19T13:51:42.450Z,4.25
2022-10-19T13:54:18.918Z,4.30
2022-10-19T13:56:53.133Z,4.43
2022-10-19T13:59:43.899Z,4.35
2022-10-19T14:02:46.162Z,4.50
2022-10-19T14:05:39.310Z,4.25
2022-10-19T14:08:11.238Z,4.65
2022-10-19T14:13:27.221Z,4.28
2022-10-19T14:15:56.009Z,4.25
2022-10-19T14:18:25.684Z,3.90
2022-10-19T14:21:02.519Z,4.72
2022-10-19T14:23:31.327Z,4.63
2022-10-19T14:26:00.653Z,4.63
2022-10-19T14:28:28.657Z,4.25
2022-10-19T14:30:57.921Z,4.20
2022-10-19T14:33:26.081Z,4.70
2022-10-19T14:35:54.072Z,4.68
2022-10-19T14:38:27.600Z,4.28
2022-10-19T14:40:56.066Z,4.68
2022-10-19T14:43:24.995Z,4.80
2022-10-19T14:46:14.103Z,4.53
2022-10-19T14:48:42.935Z,4.43
2022-10-19T14:51:25.767Z,4.18
2022-10-19T14:53:55.972Z,4.25
2022-10-19T14:56:24.970Z,4.80
2022-10-19T14:58:55.945Z,4.70
2022-10-19T15:01:23.880Z,4.40
2022-10-19T15:03:51.945Z,4.78
2022-10-19T15:06:22.560Z,5.07
2022-10-19T15:08:51.833Z,4.88
2022-10-19T15:11:26.142Z,5.45
2022-10-19T15:13:59.628Z,5.05
2022-10-19T15:16:51.632Z,4.82
2022-10-19T15:19:22.947Z,4.63
2022-10-19T15:22:13.129Z,4.45
2022-10-19T15:24:41.449Z,5.13
2022-10-19T15:27:11.973Z,5.07
2022-10-19T15:29:40.287Z,5.55
2022-10-19T15:32:15.727Z,5.10
2022-10-19T15:34:43.727Z,5.53
2022-10-19T15:37:17.950Z,5.10
2022-10-19T15:39:45.950Z,6.30
2022-10-19T15:42:33.007Z,5.40
2022-10-19T15:45:01.247Z,5.33
2022-10-19T15:47:29.144Z,5.37
2022-10-19T15:49:59.441Z,5.53
2022-10-19T15:52:27.857Z,5.53
2022-10-19T15:54:56.644Z,5.37
2022-10-19T15:57:28.513Z,5.75
2022-10-19T15:59:56.762Z,6.10
2022-10-19T16:02:25.387Z,4.87
2022-10-19T16:04:53.727Z,6.07
2022-10-19T16:07:25.964Z,5.40
2022-10-19T16:09:54.345Z,5.60
2022-10-19T16:12:22.451Z,5.70
2022-10-19T16:14:51.716Z,6.13
2022-10-19T16:17:19.600Z,5.30
2022-10-19T16:19:47.840Z,5.47
2022-10-19T16:22:15.868Z,5.70
2022-10-19T16:24:43.760Z,6.00
2022-10-19T16:27:15.081Z,5.97
2022-10-19T16:29:43.257Z,5.70
2022-10-19T16:32:12.592Z,5.97
2022-10-19T16:34:41.359Z,6.10
2022-10-19T16:37:09.309Z,6.30
2022-10-19T16:39:37.268Z,5.87
2022-10-19T16:42:05.276Z,5.73
2022-10-19T16:44:33.174Z,5.93
2022-10-19T16:47:01.140Z,5.90
2022-10-19T16:49:30.596Z,5.57
2022-10-19T16:51:58.471Z,5.87
2022-10-19T16:54:27.007Z,5.97
2022-10-19T16:56:55.669Z,5.53
2022-10-19T16:59:23.748Z,5.77
2022-10-19T17:01:51.651Z,6.20
2022-10-19T17:04:19.660Z,5.97
2022-10-19T17:06:48.997Z,6.00
2022-10-19T17:09:40.741Z,5.43
2022-10-19T17:12:05.306Z,5.90
2022-10-19T17:14:33.290Z,6.07
2022-10-19T17:17:01.148Z,6.90
2022-10-19T17:19:29.129Z,6.70
2022-10-19T17:21:59.169Z,6.30
2022-10-19T17:24:27.276Z,5.83
2022-10-19T17:26:55.163Z,5.80
2022-10-19T17:29:23.141Z,5.60
2022-10-19T17:31:51.019Z,6.03
2022-10-19T17:34:19.007Z,5.37
2022-10-19T17:36:47.248Z,6.37
2022-10-19T17:39:17.751Z,5.60
2022-10-19T17:41:45.914Z,6.20
2022-10-19T17:44:13.817Z,5.50
2022-10-19T17:46:41.752Z,6.07
2022-10-19T17:49:09.917Z,6.00
2022-10-19T17:51:37.967Z,6.73
2022-10-19T17:54:07.671Z,6.40
2022-10-19T17:56:37.012Z,6.67
2022-10-19T17:59:04.913Z,6.23
2022-10-19T18:01:32.862Z,6.27
2022-10-19T18:04:00.915Z,6.63
2022-10-19T18:06:29.560Z,6.63
2022-10-19T18:08:57.796Z,7.40
2022-10-19T18:11:26.730Z,6.40
2022-10-19T18:13:56.933Z,7.40
2022-10-19T18:16:25.864Z,6.63
2022-10-19T18:18:55.247Z,6.93
2022-10-19T18:21:24.524Z,7.10
2022-10-19T18:23:53.404Z,7.57
2022-10-19T18:26:22.833Z,7.17
2022-10-19T18:28:50.960Z,7.53
2022-10-19T18:31:21.343Z,6.73
2022-10-19T18:33:49.369Z,7.27
2022-10-19T18:36:17.253Z,7.97
2022-10-19T18:38:45.156Z,7.93
2022-10-19T18:43:50.486Z,8.57
2022-10-19T18:46:20.526Z,9.90
2022-10-19T18:48:48.549Z,10.57
2022-10-19T18:51:16.666Z,9.93
2022-10-19T18:53:44.785Z,10.13
2022-10-19T18:56:13.580Z,10.43
2022-10-19T18:58:41.540Z,9.77
2022-10-19T19:01:10.992Z,9.20
2022-10-19T19:03:41.005Z,8.97
2022-10-19T19:06:09.851Z,9.57
2022-10-19T19:08:38.572Z,10.43
2022-10-19T19:11:13.075Z,9.40
2022-10-19T19:13:41.234Z,8.87
2022-10-19T19:16:09.651Z,9.30
2022-10-19T19:18:37.537Z,9.77
2022-10-19T19:21:13.915Z,10.30
2022-10-19T19:23:41.770Z,9.63
2022-10-19T19:26:10.334Z,9.57
2022-10-19T19:28:41.452Z,9.57
2022-10-19T19:31:10.240Z,9.63
2022-10-19T19:33:38.100Z,9.63
2022-10-19T19:36:08.083Z,9.70
2022-10-19T19:38:36.008Z,9.93
2022-10-19T19:41:04.956Z,10.73
2022-10-19T19:43:32.876Z,11.23
2022-10-19T19:46:03.306Z,10.20
2022-10-19T19:48:34.157Z,10.80
2022-10-19T19:51:02.220Z,11.30
2022-10-19T19:53:31.506Z,11.20
2022-10-19T19:55:59.404Z,11.80
2022-10-19T19:58:27.421Z,11.77
2022-10-19T20:00:55.304Z,10.73
2022-10-19T20:03:23.208Z,11.33
2022-10-19T20:05:51.057Z,10.80
2022-10-19T20:08:19.140Z,11.23
2022-10-19T20:10:48.747Z,11.37
2022-10-19T20:13:16.594Z,11.97
2022-10-19T20:15:44.672Z,11.67
2022-10-19T20:18:12.540Z,11.37
2022-10-19T20:20:41.416Z,11.80
2022-10-19T20:23:09.312Z,11.63
2022-10-19T20:25:37.689Z,11.40
2022-10-19T20:28:06.973Z,11.27
2022-10-19T20:30:34.984Z,12.60
2022-10-19T20:33:02.892Z,12.17
2022-10-19T20:35:30.780Z,12.10
2022-10-19T20:37:58.641Z,12.20
2022-10-19T20:40:26.594Z,12.20
2022-10-19T20:42:56.367Z,13.10
2022-10-19T20:45:25.606Z,12.47
2022-10-19T20:47:53.925Z,12.60
2022-10-19T20:50:22.066Z,11.83
2022-10-19T20:52:50.012Z,12.33
2022-10-19T20:55:20.064Z,12.20
2022-10-19T20:57:47.944Z,11.83
2022-10-19T21:00:16.670Z,11.97
2022-10-19T21:02:46.488Z,11.93
2022-10-19T21:05:15.008Z,12.27
2022-10-19T21:07:42.965Z,12.10
2022-10-19T21:10:11.149Z,11.93
2022-10-19T21:12:39.022Z,12.67
2022-10-19T21:15:07.697Z,12.37
2022-10-19T21:17:35.637Z,13.73
2022-10-19T21:20:05.057Z,13.00
2022-10-19T21:22:39.076Z,12.87
2022-10-19T21:25:07.669Z,13.70
2022-10-19T21:27:35.748Z,13.67
2022-10-19T21:30:03.960Z,13.90
2022-10-19T21:32:31.839Z,13.93
2022-10-19T21:34:59.719Z,13.57
2022-10-19T21:37:29.905Z,12.93
2022-10-19T21:39:57.729Z,12.77
2022-10-19T21:42:25.646Z,14.03
2022-10-19T21:44:57.203Z,13.73
2022-10-19T21:47:29.113Z,13.57
2022-10-19T21:49:56.973Z,12.93
2022-10-19T21:52:24.901Z,13.97
2022-10-19T21:54:54.517Z,13.17
2022-10-19T21:57:22.444Z,14.20
2022-10-19T21:59:50.338Z,12.47
2022-10-19T22:02:18.182Z,12.60
2022-10-19T22:04:46.263Z,12.50
2022-10-19T22:07:14.154Z,11.67
2022-10-19T22:09:42.026Z,12.47
2022-10-19T22:12:11.341Z,12.60
2022-10-19T22:14:39.253Z,12.60
2022-10-19T22:17:07.146Z,11.73
2022-10-19T22:19:35.062Z,11.63
2022-10-19T22:22:02.919Z,11.67
2022-10-19T22:24:30.798Z,12.00
2022-10-19T22:26:58.685Z,12.57
2022-10-19T22:29:27.989Z,12.37
2022-10-19T22:31:55.893Z,12.03
2022-10-19T22:34:23.921Z,11.00
2022-10-19T22:36:51.757Z,9.63
2022-10-19T22:39:19.593Z,10.33
2022-10-19T22:41:47.500Z,9.70
2022-10-19T22:44:15.352Z,10.20
2022-10-19T22:46:44.572Z,12.50
2022-10-19T22:49:12.499Z,12.43
2022-10-19T22:51:40.386Z,12.03
2022-10-19T22:54:08.269Z,10.53
2022-10-19T22:56:36.156Z,9.57
2022-10-19T22:59:04.733Z,8.17
2022-10-19T23:01:32.667Z,7.70
2022-10-19T23:04:01.962Z,8.30
2022-10-19T23:06:29.810Z,8.23
2022-10-19T23:08:57.737Z,8.50
2022-10-19T23:11:25.633Z,7.70
2022-10-19T23:13:53.492Z,8.57
2022-10-19T23:16:21.383Z,8.93
2022-10-19T23:18:49.309Z,8.90
2022-10-19T23:21:18.529Z,9.30
2022-10-19T23:23:46.383Z,7.90
2022-10-19T23:26:15.159Z,7.03
2022-10-19T23:28:44.413Z,7.50
2022-10-19T23:31:13.077Z,7.17
2022-10-19T23:33:40.946Z,6.40
2022-10-19T23:36:09.863Z,7.33
2022-10-19T23:38:39.096Z,6.77
2022-10-19T23:41:07.284Z,6.90
2022-10-19T23:46:07.887Z,5.83
2022-10-19T23:48:35.884Z,5.60
2022-10-19T23:51:04.697Z,5.53
2022-10-19T23:53:35.727Z,5.13
2022-10-19T23:56:09.045Z,4.90
2022-10-19T23:58:36.955Z,4.90
